sensor_id;sensor_type;location;lat;lon;timestamp;P1;durP1;ratioP1;P2;durP2;ratioP2
23543;SDS011;11950;51.230;4.012;2023-05-10T00:30:03;53.90;;;26.90;;
23543;SDS011;11950;51.230;4.012;2023-05-10T00:32:35;54.67;;;29.33;;
23543;SDS011;11950;51.230;4.012;2023-05-10T00:35:02;56.40;;;28.08;;
23543;SDS011;11950;51.230;4.012;2023-05-10T00:37:28;49.58;;;26.52;;
23543;SDS011;11950;51.230;4.012;2023-05-10T00:39:54;43.63;;;23.50;;
23543;SDS011;11950;51.230;4.012;2023-05-10T00:42:21;36.65;;;19.95;;
23543;SDS011;11950;51.230;4.012;2023-05-10T00:44:48;33.85;;;17.13;;
23543;SDS011;11950;51.230;4.012;2023-05-10T00:47:14;26.42;;;15.02;;
23543;SDS011;11950;51.230;4.012;2023-05-10T00:49:42;26.70;;;14.77;;
23543;SDS011;11950;51.230;4.012;2023-05-10T00:52:10;23.27;;;13.38;;
23543;SDS011;11950;51.230;4.012;2023-05-10T00:54:36;22.10;;;11.80;;
23543;SDS011;11950;51.230;4.012;2023-05-10T00:57:03;22.40;;;11.93;;
23543;SDS011;11950;51.230;4.012;2023-05-10T00:59:29;19.23;;;12.25;;
23543;SDS011;11950;51.230;4.012;2023-05-10T01:01:56;24.08;;;11.30;;
23543;SDS011;11950;51.230;4.012;2023-05-10T01:04:23;20.27;;;11.38;;
23543;SDS011;11950;51.230;4.012;2023-05-10T01:06:52;17.13;;;10.30;;
23543;SDS011;11950;51.230;4.012;2023-05-10T01:09:19;19.13;;;10.45;;
23543;SDS011;11950;51.230;4.012;2023-05-10T01:11:47;18.88;;;11.73;;
23543;SDS011;11950;51.230;4.012;2023-05-10T01:14:14;18.48;;;11.15;;
23543;SDS011;11950;51.230;4.012;2023-05-10T01:16:43;20.67;;;12.30;;
23543;SDS011;11950;51.230;4.012;2023-05-10T01:19:12;23.25;;;12.98;;
23543;SDS011;11950;51.230;4.012;2023-05-10T01:24:42;27.42;;;15.85;;
23543;SDS011;11950;51.230;4.012;2023-05-10T01:33:27;31.23;;;17.23;;
23543;SDS011;11950;51.230;4.012;2023-05-10T01:36:08;38.72;;;20.58;;
23543;SDS011;11950;51.230;4.012;2023-05-10T01:38:41;44.40;;;21.60;;
23543;SDS011;11950;51.230;4.012;2023-05-10T01:44:01;63.42;;;31.55;;
23543;SDS011;11950;51.230;4.012;2023-05-10T01:46:45;57.80;;;31.23;;
23543;SDS011;11950;51.230;4.012;2023-05-10T01:49:21;60.72;;;31.75;;
23543;SDS011;11950;51.230;4.012;2023-05-10T01:51:52;54.17;;;27.55;;
23543;SDS011;11950;51.230;4.012;2023-05-10T01:54:22;44.97;;;25.67;;
23543;SDS011;11950;51.230;4.012;2023-05-10T01:57:02;46.45;;;24.60;;
23543;SDS011;11950;51.230;4.012;2023-05-10T01:59:33;42.05;;;23.73;;
23543;SDS011;11950;51.230;4.012;2023-05-10T02:02:06;43.53;;;23.85;;
23543;SDS011;11950;51.230;4.012;2023-05-10T02:04:38;44.00;;;22.27;;
23543;SDS011;11950;51.230;4.012;2023-05-10T02:07:06;38.78;;;21.80;;
23543;SDS011;11950;51.230;4.012;2023-05-10T02:09:34;37.40;;;21.65;;
23543;SDS011;11950;51.230;4.012;2023-05-10T02:12:02;42.03;;;22.27;;
23543;SDS011;11950;51.230;4.012;2023-05-10T02:14:32;42.08;;;22.98;;
23543;SDS011;11950;51.230;4.012;2023-05-10T02:17:02;39.28;;;22.25;;
23543;SDS011;11950;51.230;4.012;2023-05-10T02:19:31;38.28;;;22.10;;
23543;SDS011;11950;51.230;4.012;2023-05-10T02:21:58;39.65;;;21.65;;
23543;SDS011;11950;51.230;4.012;2023-05-10T02:24:26;47.08;;;23.55;;
23543;SDS011;11950;51.230;4.012;2023-05-10T02:26:53;37.25;;;20.88;;
23543;SDS011;11950;51.230;4.012;2023-05-10T02:29:22;43.72;;;22.65;;
23543;SDS011;11950;51.230;4.012;2023-05-10T02:31:54;45.17;;;22.23;;
23543;SDS011;11950;51.230;4.012;2023-05-10T02:34:21;36.85;;;21.15;;
23543;SDS011;11950;51.230;4.012;2023-05-10T02:36:48;43.33;;;22.27;;
23543;SDS011;11950;51.230;4.012;2023-05-10T02:39:18;41.00;;;21.77;;
23543;SDS011;11950;51.230;4.012;2023-05-10T02:41:46;46.15;;;23.50;;
23543;SDS011;11950;51.230;4.012;2023-05-10T02:44:19;42.25;;;22.27;;
23543;SDS011;11950;51.230;4.012;2023-05-10T02:46:47;44.33;;;22.88;;
23543;SDS011;11950;51.230;4.012;2023-05-10T02:49:13;44.10;;;21.75;;
23543;SDS011;11950;51.230;4.012;2023-05-10T02:51:41;45.08;;;21.92;;
23543;SDS011;11950;51.230;4.012;2023-05-10T02:54:18;47.17;;;23.27;;
23543;SDS011;11950;51.230;4.012;2023-05-10T02:56:50;44.55;;;23.40;;
23543;SDS011;11950;51.230;4.012;2023-05-10T02:59:19;45.77;;;22.73;;
23543;SDS011;11950;51.230;4.012;2023-05-10T03:01:45;44.50;;;23.90;;
23543;SDS011;11950;51.230;4.012;2023-05-10T03:04:12;44.30;;;23.08;;
23543;SDS011;11950;51.230;4.012;2023-05-10T03:06:39;44.97;;;21.83;;
23543;SDS011;11950;51.230;4.012;2023-05-10T03:09:05;40.42;;;21.50;;
23543;SDS011;11950;51.230;4.012;2023-05-10T03:14:23;37.97;;;19.33;;
23543;SDS011;11950;51.230;4.012;2023-05-10T03:22:21;37.55;;;20.50;;
23543;SDS011;11950;51.230;4.012;2023-05-10T03:24:55;42.85;;;20.27;;
23543;SDS011;11950;51.230;4.012;2023-05-10T03:27:28;37.95;;;18.30;;
23543;SDS011;11950;51.230;4.012;2023-05-10T03:29:58;39.60;;;19.65;;
23543;SDS011;11950;51.230;4.012;2023-05-10T03:32:29;38.25;;;18.58;;
23543;SDS011;11950;51.230;4.012;2023-05-10T03:34:58;39.60;;;19.38;;
23543;SDS011;11950;51.230;4.012;2023-05-10T03:37:25;39.20;;;19.40;;
23543;SDS011;11950;51.230;4.012;2023-05-10T03:39:51;36.85;;;18.35;;
23543;SDS011;11950;51.230;4.012;2023-05-10T03:42:17;44.50;;;21.77;;
23543;SDS011;11950;51.230;4.012;2023-05-10T03:44:44;41.42;;;21.80;;
23543;SDS011;11950;51.230;4.012;2023-05-10T03:47:10;44.05;;;21.50;;
23543;SDS011;11950;51.230;4.012;2023-05-10T03:49:36;43.95;;;21.13;;
23543;SDS011;11950;51.230;4.012;2023-05-10T03:52:03;42.08;;;21.42;;
23543;SDS011;11950;51.230;4.012;2023-05-10T03:54:30;44.13;;;21.23;;
23543;SDS011;11950;51.230;4.012;2023-05-10T03:56:58;39.33;;;21.02;;
23543;SDS011;11950;51.230;4.012;2023-05-10T03:59:26;42.15;;;21.70;;
23543;SDS011;11950;51.230;4.012;2023-05-10T04:01:52;42.72;;;21.10;;
23543;SDS011;11950;51.230;4.012;2023-05-10T04:04:19;39.30;;;19.63;;
23543;SDS011;11950;51.230;4.012;2023-05-10T04:06:49;41.60;;;22.58;;
23543;SDS011;11950;51.230;4.012;2023-05-10T04:09:15;43.15;;;21.08;;
23543;SDS011;11950;51.230;4.012;2023-05-10T04:11:42;42.10;;;22.05;;
23543;SDS011;11950;51.230;4.012;2023-05-10T04:14:09;46.28;;;22.65;;
23543;SDS011;11950;51.230;4.012;2023-05-10T04:16:35;42.78;;;22.15;;
23543;SDS011;11950;51.230;4.012;2023-05-10T04:19:01;42.95;;;22.48;;
23543;SDS011;11950;51.230;4.012;2023-05-10T04:21:28;43.45;;;22.27;;
23543;SDS011;11950;51.230;4.012;2023-05-10T04:23:54;44.63;;;22.00;;
23543;SDS011;11950;51.230;4.012;2023-05-10T04:26:21;42.90;;;23.23;;
23543;SDS011;11950;51.230;4.012;2023-05-10T04:28:47;40.35;;;20.65;;
23543;SDS011;11950;51.230;4.012;2023-05-10T04:31:13;46.20;;;23.52;;
23543;SDS011;11950;51.230;4.012;2023-05-10T04:33:40;41.95;;;22.95;;
23543;SDS011;11950;51.230;4.012;2023-05-10T04:36:06;43.80;;;22.38;;
23543;SDS011;11950;51.230;4.012;2023-05-10T04:38:33;42.38;;;22.55;;
23543;SDS011;11950;51.230;4.012;2023-05-10T04:41:06;40.45;;;21.25;;
23543;SDS011;11950;51.230;4.012;2023-05-10T04:43:33;40.15;;;21.85;;
23543;SDS011;11950;51.230;4.012;2023-05-10T04:45:59;43.72;;;23.10;;
23543;SDS011;11950;51.230;4.012;2023-05-10T04:48:26;40.38;;;21.55;;
23543;SDS011;11950;51.230;4.012;2023-05-10T04:50:52;41.08;;;20.65;;
23543;SDS011;11950;51.230;4.012;2023-05-10T04:53:18;38.65;;;20.88;;
23543;SDS011;11950;51.230;4.012;2023-05-10T04:55:45;36.03;;;20.95;;
23543;SDS011;11950;51.230;4.012;2023-05-10T04:58:12;34.38;;;19.77;;
23543;SDS011;11950;51.230;4.012;2023-05-10T05:00:41;36.47;;;19.67;;
23543;SDS011;11950;51.230;4.012;2023-05-10T05:03:08;36.22;;;19.63;;
23543;SDS011;11950;51.230;4.012;2023-05-10T05:05:35;34.75;;;19.13;;
23543;SDS011;11950;51.230;4.012;2023-05-10T05:08:01;29.73;;;18.83;;
23543;SDS011;11950;51.230;4.012;2023-05-10T05:10:27;31.85;;;18.13;;
23543;SDS011;11950;51.230;4.012;2023-05-10T05:12:54;32.97;;;19.05;;
23543;SDS011;11950;51.230;4.012;2023-05-10T05:15:20;31.00;;;18.20;;
23543;SDS011;11950;51.230;4.012;2023-05-10T05:17:46;30.38;;;17.70;;
23543;SDS011;11950;51.230;4.012;2023-05-10T05:20:13;25.75;;;16.30;;
23543;SDS011;11950;51.230;4.012;2023-05-10T05:22:39;26.50;;;16.80;;
23543;SDS011;11950;51.230;4.012;2023-05-10T05:25:06;27.27;;;16.88;;
23543;SDS011;11950;51.230;4.012;2023-05-10T05:27:32;27.52;;;17.05;;
23543;SDS011;11950;51.230;4.012;2023-05-10T05:29:59;29.20;;;16.95;;
23543;SDS011;11950;51.230;4.012;2023-05-10T05:32:25;26.15;;;16.38;;
23543;SDS011;11950;51.230;4.012;2023-05-10T05:34:51;24.27;;;15.93;;
23543;SDS011;11950;51.230;4.012;2023-05-10T05:37:19;26.98;;;16.42;;
23543;SDS011;11950;51.230;4.012;2023-05-10T05:39:46;29.00;;;17.23;;
23543;SDS011;11950;51.230;4.012;2023-05-10T05:42:13;25.52;;;16.25;;
23543;SDS011;11950;51.230;4.012;2023-05-10T05:44:41;23.65;;;15.65;;
23543;SDS011;11950;51.230;4.012;2023-05-10T05:47:07;27.65;;;17.67;;
23543;SDS011;11950;51.230;4.012;2023-05-10T05:49:34;28.10;;;17.08;;
23543;SDS011;11950;51.230;4.012;2023-05-10T05:52:03;25.50;;;16.77;;
23543;SDS011;11950;51.230;4.012;2023-05-10T05:54:30;24.35;;;17.30;;
23543;SDS011;11950;51.230;4.012;2023-05-10T05:57:00;24.90;;;17.10;;
23543;SDS011;11950;51.230;4.012;2023-05-10T05:59:29;21.67;;;15.75;;
23543;SDS011;11950;51.230;4.012;2023-05-10T06:01:55;20.75;;;14.13;;
23543;SDS011;11950;51.230;4.012;2023-05-10T06:04:22;22.52;;;14.77;;
23543;SDS011;11950;51.230;4.012;2023-05-10T06:06:48;19.35;;;13.23;;
23543;SDS011;11950;51.230;4.012;2023-05-10T06:09:14;18.88;;;13.68;;
23543;SDS011;11950;51.230;4.012;2023-05-10T06:11:41;21.25;;;14.75;;
23543;SDS011;11950;51.230;4.012;2023-05-10T06:14:13;18.55;;;13.77;;
23543;SDS011;11950;51.230;4.012;2023-05-10T06:16:43;20.63;;;14.82;;
23543;SDS011;11950;51.230;4.012;2023-05-10T06:22:05;16.88;;;13.00;;
23543;SDS011;11950;51.230;4.012;2023-05-10T06:24:46;19.50;;;13.73;;
23543;SDS011;11950;51.230;4.012;2023-05-10T06:27:13;19.88;;;13.82;;
23543;SDS011;11950;51.230;4.012;2023-05-10T06:29:39;17.35;;;13.45;;
23543;SDS011;11950;51.230;4.012;2023-05-10T06:32:06;19.10;;;13.52;;
23543;SDS011;11950;51.230;4.012;2023-05-10T06:37:26;19.38;;;13.23;;
23543;SDS011;11950;51.230;4.012;2023-05-10T06:39:55;21.92;;;14.63;;
23543;SDS011;11950;51.230;4.012;2023-05-10T06:42:21;22.55;;;14.52;;
23543;SDS011;11950;51.230;4.012;2023-05-10T06:44:51;21.38;;;14.48;;
23543;SDS011;11950;51.230;4.012;2023-05-10T06:47:18;22.30;;;14.40;;
23543;SDS011;11950;51.230;4.012;2023-05-10T06:50:05;18.98;;;13.30;;
23543;SDS011;11950;51.230;4.012;2023-05-10T06:52:33;20.00;;;14.15;;
23543;SDS011;11950;51.230;4.012;2023-05-10T06:55:08;18.98;;;13.50;;
23543;SDS011;11950;51.230;4.012;2023-05-10T06:57:35;18.52;;;13.77;;
23543;SDS011;11950;51.230;4.012;2023-05-10T07:00:02;19.13;;;12.85;;
23543;SDS011;11950;51.230;4.012;2023-05-10T07:02:31;16.63;;;12.55;;
23543;SDS011;11950;51.230;4.012;2023-05-10T07:05:00;17.42;;;11.93;;
23543;SDS011;11950;51.230;4.012;2023-05-10T07:07:27;14.68;;;10.30;;
23543;SDS011;11950;51.230;4.012;2023-05-10T07:09:54;15.90;;;10.68;;
23543;SDS011;11950;51.230;4.012;2023-05-10T07:12:22;16.30;;;11.80;;
23543;SDS011;11950;51.230;4.012;2023-05-10T07:14:48;17.20;;;10.93;;
23543;SDS011;11950;51.230;4.012;2023-05-10T07:17:15;15.45;;;9.98;;
23543;SDS011;11950;51.230;4.012;2023-05-10T07:19:41;13.43;;;9.77;;
23543;SDS011;11950;51.230;4.012;2023-05-10T07:22:07;14.23;;;10.60;;
23543;SDS011;11950;51.230;4.012;2023-05-10T07:24:34;11.50;;;9.68;;
23543;SDS011;11950;51.230;4.012;2023-05-10T07:27:00;12.85;;;9.70;;
23543;SDS011;11950;51.230;4.012;2023-05-10T07:29:29;11.00;;;8.98;;
23543;SDS011;11950;51.230;4.012;2023-05-10T07:31:56;10.63;;;8.13;;
23543;SDS011;11950;51.230;4.012;2023-05-10T07:34:22;10.93;;;8.60;;
23543;SDS011;11950;51.230;4.012;2023-05-10T07:36:48;9.32;;;6.95;;
23543;SDS011;11950;51.230;4.012;2023-05-10T07:39:15;10.35;;;7.43;;
23543;SDS011;11950;51.230;4.012;2023-05-10T07:41:45;6.93;;;6.22;;
23543;SDS011;11950;51.230;4.012;2023-05-10T07:44:14;9.60;;;6.65;;
23543;SDS011;11950;51.230;4.012;2023-05-10T07:46:43;8.45;;;5.95;;
23543;SDS011;11950;51.230;4.012;2023-05-10T07:49:10;8.10;;;5.90;;
23543;SDS011;11950;51.230;4.012;2023-05-10T07:51:36;7.65;;;6.05;;
23543;SDS011;11950;51.230;4.012;2023-05-10T07:54:02;6.30;;;5.20;;
23543;SDS011;11950;51.230;4.012;2023-05-10T07:56:32;6.05;;;5.13;;
23543;SDS011;11950;51.230;4.012;2023-05-10T07:58:59;6.50;;;5.70;;
23543;SDS011;11950;51.230;4.012;2023-05-10T08:01:26;9.07;;;6.03;;
23543;SDS011;11950;51.230;4.012;2023-05-10T08:03:52;7.00;;;5.57;;
23543;SDS011;11950;51.230;4.012;2023-05-10T08:06:19;8.93;;;5.57;;
23543;SDS011;11950;51.230;4.012;2023-05-10T08:08:46;6.47;;;5.75;;
23543;SDS011;11950;51.230;4.012;2023-05-10T08:11:19;8.60;;;6.55;;
23543;SDS011;11950;51.230;4.012;2023-05-10T08:13:47;13.80;;;6.85;;
23543;SDS011;11950;51.230;4.012;2023-05-10T08:16:14;8.98;;;6.80;;
23543;SDS011;11950;51.230;4.012;2023-05-10T08:18:43;12.05;;;7.15;;
23543;SDS011;11950;51.230;4.012;2023-05-10T08:21:14;11.10;;;7.50;;
23543;SDS011;11950;51.230;4.012;2023-05-10T08:23:44;9.02;;;7.13;;
23543;SDS011;11950;51.230;4.012;2023-05-10T08:26:13;11.10;;;6.53;;
23543;SDS011;11950;51.230;4.012;2023-05-10T08:28:39;8.13;;;6.93;;
23543;SDS011;11950;51.230;4.012;2023-05-10T08:31:05;10.10;;;7.30;;
23543;SDS011;11950;51.230;4.012;2023-05-10T08:33:32;8.95;;;7.70;;
23543;SDS011;11950;51.230;4.012;2023-05-10T08:39:12;10.30;;;7.18;;
23543;SDS011;11950;51.230;4.012;2023-05-10T08:46:26;7.28;;;5.95;;
23543;SDS011;11950;51.230;4.012;2023-05-10T08:49:08;8.35;;;6.25;;
23543;SDS011;11950;51.230;4.012;2023-05-10T08:52:02;8.23;;;5.82;;
23543;SDS011;11950;51.230;4.012;2023-05-10T08:54:29;7.15;;;6.05;;
23543;SDS011;11950;51.230;4.012;2023-05-10T08:56:57;8.82;;;6.55;;
23543;SDS011;11950;51.230;4.012;2023-05-10T08:59:26;7.68;;;6.60;;
23543;SDS011;11950;51.230;4.012;2023-05-10T09:05:19;8.77;;;7.20;;
23543;SDS011;11950;51.230;4.012;2023-05-10T09:08:01;9.45;;;7.53;;
23543;SDS011;11950;51.230;4.012;2023-05-10T09:10:28;7.70;;;6.60;;
23543;SDS011;11950;51.230;4.012;2023-05-10T09:12:56;10.05;;;7.97;;
23543;SDS011;11950;51.230;4.012;2023-05-10T09:15:23;14.05;;;10.00;;
23543;SDS011;11950;51.230;4.012;2023-05-10T09:17:50;17.70;;;10.48;;
23543;SDS011;11950;51.230;4.012;2023-05-10T09:20:45;10.27;;;8.55;;
23543;SDS011;11950;51.230;4.012;2023-05-10T09:23:17;11.63;;;7.75;;
23543;SDS011;11950;51.230;4.012;2023-05-10T09:25:44;9.23;;;6.90;;
23543;SDS011;11950;51.230;4.012;2023-05-10T09:28:13;9.65;;;6.45;;
23543;SDS011;11950;51.230;4.012;2023-05-10T09:30:40;13.45;;;9.27;;
23543;SDS011;11950;51.230;4.012;2023-05-10T09:33:09;33.45;;;19.40;;
23543;SDS011;11950;51.230;4.012;2023-05-10T09:35:35;48.25;;;28.42;;
23543;SDS011;11950;51.230;4.012;2023-05-10T09:38:05;57.45;;;30.70;;
23543;SDS011;11950;51.230;4.012;2023-05-10T09:40:31;60.47;;;32.03;;
23543;SDS011;11950;51.230;4.012;2023-05-10T09:42:59;63.33;;;32.60;;
23543;SDS011;11950;51.230;4.012;2023-05-10T09:45:27;66.38;;;33.35;;
23543;SDS011;11950;51.230;4.012;2023-05-10T09:47:55;52.72;;;29.00;;
23543;SDS011;11950;51.230;4.012;2023-05-10T09:50:23;49.00;;;26.38;;
23543;SDS011;11950;51.230;4.012;2023-05-10T09:55:20;27.60;;;16.10;;
23543;SDS011;11950;51.230;4.012;2023-05-10T09:57:48;25.02;;;15.05;;
23543;SDS011;11950;51.230;4.012;2023-05-10T10:00:19;21.63;;;13.60;;
23543;SDS011;11950;51.230;4.012;2023-05-10T10:02:47;22.50;;;13.55;;
23543;SDS011;11950;51.230;4.012;2023-05-10T10:05:19;23.45;;;14.40;;
23543;SDS011;11950;51.230;4.012;2023-05-10T10:07:46;22.63;;;14.32;;
23543;SDS011;11950;51.230;4.012;2023-05-10T10:10:14;23.98;;;14.82;;
23543;SDS011;11950;51.230;4.012;2023-05-10T10:13:02;32.28;;;16.90;;
23543;SDS011;11950;51.230;4.012;2023-05-10T10:15:49;22.15;;;15.00;;
23543;SDS011;11950;51.230;4.012;2023-05-10T10:18:16;27.75;;;15.23;;
23543;SDS011;11950;51.230;4.012;2023-05-10T10:20:44;26.17;;;16.25;;
23543;SDS011;11950;51.230;4.012;2023-05-10T10:23:11;25.13;;;15.63;;
23543;SDS011;11950;51.230;4.012;2023-05-10T10:25:38;26.42;;;15.05;;
23543;SDS011;11950;51.230;4.012;2023-05-10T10:36:44;29.13;;;16.98;;
23543;SDS011;11950;51.230;4.012;2023-05-10T10:39:11;29.77;;;16.38;;
23543;SDS011;11950;51.230;4.012;2023-05-10T10:41:39;27.52;;;16.02;;
23543;SDS011;11950;51.230;4.012;2023-05-10T10:46:58;27.17;;;16.40;;
23543;SDS011;11950;51.230;4.012;2023-05-10T10:49:24;29.88;;;18.42;;
23543;SDS011;11950;51.230;4.012;2023-05-10T10:54:53;26.63;;;14.15;;
23543;SDS011;11950;51.230;4.012;2023-05-10T10:57:27;28.63;;;15.57;;
23543;SDS011;11950;51.230;4.012;2023-05-10T11:02:57;40.67;;;21.20;;
23543;SDS011;11950;51.230;4.012;2023-05-10T11:07:55;46.80;;;26.88;;
23543;SDS011;11950;51.230;4.012;2023-05-10T11:10:24;48.10;;;28.65;;
23543;SDS011;11950;51.230;4.012;2023-05-10T11:13:12;35.90;;;22.35;;
23543;SDS011;11950;51.230;4.012;2023-05-10T11:15:47;23.23;;;14.52;;
23543;SDS011;11950;51.230;4.012;2023-05-10T11:18:18;21.58;;;12.75;;
23543;SDS011;11950;51.230;4.012;2023-05-10T11:20:56;20.83;;;13.07;;
23543;SDS011;11950;51.230;4.012;2023-05-10T11:25:58;19.83;;;11.55;;
23543;SDS011;11950;51.230;4.012;2023-05-10T11:28:26;19.98;;;12.77;;
23543;SDS011;11950;51.230;4.012;2023-05-10T11:30:54;20.60;;;12.25;;
23543;SDS011;11950;51.230;4.012;2023-05-10T11:33:21;18.67;;;12.45;;
23543;SDS011;11950;51.230;4.012;2023-05-10T11:35:47;20.58;;;13.20;;
23543;SDS011;11950;51.230;4.012;2023-05-10T11:38:13;18.95;;;12.32;;
23543;SDS011;11950;51.230;4.012;2023-05-10T11:40:40;19.48;;;13.18;;
23543;SDS011;11950;51.230;4.012;2023-05-10T11:43:08;21.27;;;13.48;;
23543;SDS011;11950;51.230;4.012;2023-05-10T11:45:36;21.75;;;12.43;;
23543;SDS011;11950;51.230;4.012;2023-05-10T11:48:05;20.08;;;13.85;;
23543;SDS011;11950;51.230;4.012;2023-05-10T12:01:04;20.73;;;12.88;;
23543;SDS011;11950;51.230;4.012;2023-05-10T12:03:35;18.33;;;12.00;;
23543;SDS011;11950;51.230;4.012;2023-05-10T12:06:02;19.08;;;12.60;;
23543;SDS011;11950;51.230;4.012;2023-05-10T12:08:29;20.73;;;12.85;;
23543;SDS011;11950;51.230;4.012;2023-05-10T12:11:06;21.05;;;13.55;;
23543;SDS011;11950;51.230;4.012;2023-05-10T12:13:37;23.58;;;12.98;;
23543;SDS011;11950;51.230;4.012;2023-05-10T12:16:12;24.88;;;14.48;;
23543;SDS011;11950;51.230;4.012;2023-05-10T12:18:40;21.48;;;13.00;;
23543;SDS011;11950;51.230;4.012;2023-05-10T12:21:07;23.70;;;13.77;;
23543;SDS011;11950;51.230;4.012;2023-05-10T12:23:39;21.30;;;13.55;;
23543;SDS011;11950;51.230;4.012;2023-05-10T12:26:09;19.42;;;13.32;;
23543;SDS011;11950;51.230;4.012;2023-05-10T12:31:54;23.15;;;14.80;;
23543;SDS011;11950;51.230;4.012;2023-05-10T12:36:52;26.17;;;15.05;;
23543;SDS011;11950;51.230;4.012;2023-05-10T12:39:19;28.58;;;16.52;;
23543;SDS011;11950;51.230;4.012;2023-05-10T12:41:45;26.60;;;15.30;;
23543;SDS011;11950;51.230;4.012;2023-05-10T12:47:19;27.48;;;16.27;;
23543;SDS011;11950;51.230;4.012;2023-05-10T12:49:45;30.55;;;17.65;;
23543;SDS011;11950;51.230;4.012;2023-05-10T12:52:11;24.55;;;17.45;;
23543;SDS011;11950;51.230;4.012;2023-05-10T12:54:37;26.77;;;17.63;;
23543;SDS011;11950;51.230;4.012;2023-05-10T12:57:04;27.98;;;17.80;;
23543;SDS011;11950;51.230;4.012;2023-05-10T12:59:30;28.23;;;17.23;;
23543;SDS011;11950;51.230;4.012;2023-05-10T13:01:57;29.67;;;18.98;;
23543;SDS011;11950;51.230;4.012;2023-05-10T13:04:23;28.33;;;19.13;;
23543;SDS011;11950;51.230;4.012;2023-05-10T13:06:50;31.80;;;18.65;;
23543;SDS011;11950;51.230;4.012;2023-05-10T13:09:28;28.13;;;18.80;;
23543;SDS011;11950;51.230;4.012;2023-05-10T13:11:55;30.45;;;19.45;;
23543;SDS011;11950;51.230;4.012;2023-05-10T13:14:21;31.17;;;18.33;;
23543;SDS011;11950;51.230;4.012;2023-05-10T13:16:48;28.95;;;18.77;;
23543;SDS011;11950;51.230;4.012;2023-05-10T13:19:20;30.88;;;17.98;;
23543;SDS011;11950;51.230;4.012;2023-05-10T13:21:52;30.42;;;17.75;;
23543;SDS011;11950;51.230;4.012;2023-05-10T13:24:18;29.83;;;18.45;;
23543;SDS011;11950;51.230;4.012;2023-05-10T13:26:45;27.77;;;18.55;;
23543;SDS011;11950;51.230;4.012;2023-05-10T13:29:24;26.55;;;18.23;;
23543;SDS011;11950;51.230;4.012;2023-05-10T13:32:01;27.83;;;18.63;;
23543;SDS011;11950;51.230;4.012;2023-05-10T13:34:30;29.65;;;18.50;;
23543;SDS011;11950;51.230;4.012;2023-05-10T13:37:16;27.40;;;17.73;;
23543;SDS011;11950;51.230;4.012;2023-05-10T13:39:42;29.58;;;18.73;;
23543;SDS011;11950;51.230;4.012;2023-05-10T13:42:09;21.98;;;14.85;;
23543;SDS011;11950;51.230;4.012;2023-05-10T13:44:38;20.60;;;13.30;;
23543;SDS011;11950;51.230;4.012;2023-05-10T13:47:05;16.40;;;10.52;;
23543;SDS011;11950;51.230;4.012;2023-05-10T13:49:31;14.18;;;9.23;;
23543;SDS011;11950;51.230;4.012;2023-05-10T13:52:01;20.05;;;8.75;;
23543;SDS011;11950;51.230;4.012;2023-05-10T13:55:36;10.00;;;6.57;;
23543;SDS011;11950;51.230;4.012;2023-05-10T13:58:09;6.82;;;4.90;;
23543;SDS011;11950;51.230;4.012;2023-05-10T14:00:36;8.50;;;4.25;;
23543;SDS011;11950;51.230;4.012;2023-05-10T14:03:02;5.47;;;4.25;;
23543;SDS011;11950;51.230;4.012;2023-05-10T14:05:30;4.40;;;3.97;;
23543;SDS011;11950;51.230;4.012;2023-05-10T14:07:56;4.93;;;4.35;;
23543;SDS011;11950;51.230;4.012;2023-05-10T14:10:23;4.35;;;3.95;;
23543;SDS011;11950;51.230;4.012;2023-05-10T14:12:52;8.48;;;4.18;;
23543;SDS011;11950;51.230;4.012;2023-05-10T14:15:18;4.72;;;3.95;;
23543;SDS011;11950;51.230;4.012;2023-05-10T14:17:44;4.28;;;2.50;;
23543;SDS011;11950;51.230;4.012;2023-05-10T14:24:05;1.75;;;1.65;;
23543;SDS011;11950;51.230;4.012;2023-05-10T14:26:32;2.03;;;1.70;;
23543;SDS011;11950;51.230;4.012;2023-05-10T14:29:00;4.97;;;1.90;;
23543;SDS011;11950;51.230;4.012;2023-05-10T14:31:26;1.63;;;1.52;;
23543;SDS011;11950;51.230;4.012;2023-05-10T14:33:52;3.15;;;1.60;;
23543;SDS011;11950;51.230;4.012;2023-05-10T14:36:19;2.05;;;1.80;;
23543;SDS011;11950;51.230;4.012;2023-05-10T14:38:45;2.58;;;1.75;;
23543;SDS011;11950;51.230;4.012;2023-05-10T14:41:12;2.50;;;1.88;;
23543;SDS011;11950;51.230;4.012;2023-05-10T14:43:40;3.00;;;2.40;;
23543;SDS011;11950;51.230;4.012;2023-05-10T14:46:06;2.80;;;2.00;;
23543;SDS011;11950;51.230;4.012;2023-05-10T14:48:33;3.92;;;2.58;;
23543;SDS011;11950;51.230;4.012;2023-05-10T14:50:59;3.70;;;2.70;;
23543;SDS011;11950;51.230;4.012;2023-05-10T14:53:26;3.75;;;2.88;;
23543;SDS011;11950;51.230;4.012;2023-05-10T14:55:52;2.97;;;2.70;;
23543;SDS011;11950;51.230;4.012;2023-05-10T14:58:18;4.32;;;2.63;;
23543;SDS011;11950;51.230;4.012;2023-05-10T15:00:45;3.88;;;3.30;;
23543;SDS011;11950;51.230;4.012;2023-05-10T15:03:12;5.15;;;3.50;;
23543;SDS011;11950;51.230;4.012;2023-05-10T15:05:38;7.38;;;4.30;;
23543;SDS011;11950;51.230;4.012;2023-05-10T15:08:04;6.97;;;4.53;;
23543;SDS011;11950;51.230;4.012;2023-05-10T15:10:35;5.73;;;5.00;;
23543;SDS011;11950;51.230;4.012;2023-05-10T15:13:03;6.35;;;4.93;;
23543;SDS011;11950;51.230;4.012;2023-05-10T15:15:29;6.97;;;5.15;;
23543;SDS011;11950;51.230;4.012;2023-05-10T15:17:56;8.00;;;5.40;;
23543;SDS011;11950;51.230;4.012;2023-05-10T15:20:22;9.30;;;5.47;;
23543;SDS011;11950;51.230;4.012;2023-05-10T15:22:48;7.15;;;5.65;;
23543;SDS011;11950;51.230;4.012;2023-05-10T15:25:15;9.35;;;6.22;;
23543;SDS011;11950;51.230;4.012;2023-05-10T15:27:41;7.22;;;5.75;;
23543;SDS011;11950;51.230;4.012;2023-05-10T15:30:09;9.93;;;6.72;;
23543;SDS011;11950;51.230;4.012;2023-05-10T15:32:36;9.48;;;6.63;;
23543;SDS011;11950;51.230;4.012;2023-05-10T15:35:05;7.97;;;6.50;;
23543;SDS011;11950;51.230;4.012;2023-05-10T15:37:32;10.48;;;6.40;;
23543;SDS011;11950;51.230;4.012;2023-05-10T15:39:58;9.10;;;6.63;;
23543;SDS011;11950;51.230;4.012;2023-05-10T15:42:29;10.48;;;8.25;;
23543;SDS011;11950;51.230;4.012;2023-05-10T15:44:57;10.23;;;7.03;;
23543;SDS011;11950;51.230;4.012;2023-05-10T15:47:23;10.50;;;7.53;;
23543;SDS011;11950;51.230;4.012;2023-05-10T15:49:53;9.98;;;7.18;;
23543;SDS011;11950;51.230;4.012;2023-05-10T15:52:19;10.00;;;7.40;;
23543;SDS011;11950;51.230;4.012;2023-05-10T15:54:46;11.55;;;8.00;;
23543;SDS011;11950;51.230;4.012;2023-05-10T15:57:12;11.50;;;8.07;;
23543;SDS011;11950;51.230;4.012;2023-05-10T15:59:38;10.07;;;8.43;;
23543;SDS011;11950;51.230;4.012;2023-05-10T16:02:05;10.43;;;7.88;;
23543;SDS011;11950;51.230;4.012;2023-05-10T16:04:32;13.05;;;7.82;;
23543;SDS011;11950;51.230;4.012;2023-05-10T16:06:58;10.82;;;7.85;;
23543;SDS011;11950;51.230;4.012;2023-05-10T16:09:24;10.88;;;8.40;;
23543;SDS011;11950;51.230;4.012;2023-05-10T16:11:51;11.23;;;8.68;;
23543;SDS011;11950;51.230;4.012;2023-05-10T16:14:18;12.68;;;9.27;;
23543;SDS011;11950;51.230;4.012;2023-05-10T16:16:47;12.05;;;9.25;;
23543;SDS011;11950;51.230;4.012;2023-05-10T16:19:13;15.60;;;10.35;;
23543;SDS011;11950;51.230;4.012;2023-05-10T16:21:40;12.52;;;9.57;;
23543;SDS011;11950;51.230;4.012;2023-05-10T16:24:06;15.75;;;10.38;;
23543;SDS011;11950;51.230;4.012;2023-05-10T16:26:32;16.98;;;10.20;;
23543;SDS011;11950;51.230;4.012;2023-05-10T16:29:06;17.67;;;10.80;;
23543;SDS011;11950;51.230;4.012;2023-05-10T16:31:33;17.88;;;10.15;;